Time;durP1;ratioP1;P1;durP2;ratioP2;P2;SDS_P1;SDS_P2;PMS_P1;PMS_P2;Temp;Humidity;BMP_temperature;BMP_pressure;BME280_temperature;BME280_humidity;BME280_pressure;Samples;Min_cycle;Max_cycle;Signal;HPM_P1;HPM_P2
2022/10/24 00:00:09;;;;;;;;;;;16.10;99.90;;;;;;5103454;28;20119;-70
2022/10/24 00:02:36;;;;;;;;;;;16.10;99.90;;;;;;5120034;28;19919;-70
2022/10/24 00:05:02;;;;;;;;;;;16.00;99.90;;;;;;5119056;28;19951;-70
2022/10/24 00:07:29;;;;;;;;;;;16.00;99.90;;;;;;5114485;28;19927;-71
2022/10/24 00:09:56;;;;;;;;;;;16.00;99.90;;;;;;5108130;28;19982;-70
2022/10/24 00:12:22;;;;;;;;;;;15.90;99.90;;;;;;5116489;28;20267;-69
2022/10/24 00:14:50;;;;;;;;;;;15.80;99.90;;;;;;5103112;28;19999;-71
2022/10/24 00:17:17;;;;;;;;;;;15.80;99.90;;;;;;5102301;28;19921;-71
2022/10/24 00:19:43;;;;;;;;;;;15.80;99.90;;;;;;5102898;28;19988;-70
2022/10/24 00:22:10;;;;;;;;;;;15.80;99.90;;;;;;5102823;28;19987;-70
2022/10/24 00:24:37;;;;;;;;;;;15.70;99.90;;;;;;5112076;28;19979;-69
2022/10/24 00:27:04;;;;;;;;;;;15.70;99.90;;;;;;5121705;28;20172;-70
2022/10/24 00:29:30;;;;;;;;;;;15.70;99.90;;;;;;5103187;28;19965;-70
2022/10/24 00:31:58;;;;;;;;;;;15.60;99.90;;;;;;5102920;28;20160;-71
2022/10/24 00:34:25;;;;;;;;;;;15.60;99.90;;;;;;5113653;28;19927;-70
2022/10/24 00:36:51;;;;;;;;;;;15.50;99.90;;;;;;5122478;28;19979;-70
2022/10/24 00:39:18;;;;;;;;;;;15.50;99.90;;;;;;5120785;28;19983;-70
2022/10/24 00:41:44;;;;;;;;;;;15.40;99.90;;;;;;5121417;28;19926;-69
2022/10/24 00:44:19;;;;;;;;;;;15.50;99.90;;;;;;5102677;28;19979;-70
2022/10/24 00:46:47;;;;;;;;;;;15.50;99.90;;;;;;5115583;28;19957;-71
2022/10/24 00:49:17;;;;;;;;;;;15.40;99.90;;;;;;5099570;28;20204;-71
2022/10/24 00:51:44;;;;;;;;;;;15.40;99.90;;;;;;5122976;28;19926;-70
2022/10/24 00:54:11;;;;;;;;;;;15.40;99.90;;;;;;5124252;28;20131;-71
2022/10/24 00:56:40;;;;;;;;;;;15.30;99.90;;;;;;5112586;28;19991;-70
2022/10/24 00:59:08;;;;;;;;;;;15.40;99.90;;;;;;5105941;28;19926;-70
2022/10/24 01:01:35;;;;;;;;;;;15.30;99.90;;;;;;5107128;28;19927;-69
2022/10/24 01:04:02;;;;;;;;;;;15.20;99.90;;;;;;5113982;28;20232;-70
2022/10/24 01:06:38;;;;;;;;;;;15.20;99.90;;;;;;5110164;28;19987;-70
2022/10/24 01:09:09;;;;;;;;;;;15.20;99.90;;;;;;5115692;28;19920;-70
2022/10/24 01:11:42;;;;;;;;;;;15.20;99.90;;;;;;5124444;28;20306;-70
2022/10/24 01:14:12;;;;;;;;;;;15.20;99.90;;;;;;5114375;28;19919;-70
2022/10/24 01:16:43;;;;;;;;;;;15.10;99.90;;;;;;5121666;28;19920;-70
2022/10/24 01:19:16;;;;;;;;;;;15.10;99.90;;;;;;5108717;28;19920;-70
2022/10/24 01:21:45;;;;;;;;;;;15.10;99.90;;;;;;5123490;28;20101;-70
2022/10/24 01:24:28;;;;;;;;;;;15.00;99.90;;;;;;5126348;28;19979;-70
2022/10/24 01:27:06;;;;;;;;;;;15.00;99.90;;;;;;5103129;28;19986;-70
2022/10/24 01:29:47;;;;;;;;;;;15.00;99.90;;;;;;5119248;28;20122;-70
2022/10/24 01:32:19;;;;;;;;;;;15.00;99.90;;;;;;5102890;28;19931;-69
2022/10/24 01:34:48;;;;;;;;;;;15.00;99.90;;;;;;5116105;28;20019;-71
2022/10/24 01:37:18;;;;;;;;;;;14.90;99.90;;;;;;5106253;28;19920;-70
2022/10/24 01:39:47;;;;;;;;;;;14.90;99.90;;;;;;5106944;28;19920;-70
2022/10/24 01:42:14;;;;;;;;;;;14.90;99.90;;;;;;5122544;28;20130;-71
2022/10/24 01:44:42;;;;;;;;;;;14.90;99.90;;;;;;5118951;28;19920;-70
2022/10/24 01:47:12;;;;;;;;;;;14.90;99.90;;;;;;5124817;28;19926;-70
2022/10/24 01:49:43;;;;;;;;;;;14.90;99.90;;;;;;5113028;28;19926;-69
2022/10/24 01:52:12;;;;;;;;;;;14.90;99.90;;;;;;5126331;28;19926;-71
2022/10/24 01:54:39;;;;;;;;;;;14.80;99.90;;;;;;5110714;28;19920;-69
2022/10/24 01:57:05;;;;;;;;;;;14.80;99.90;;;;;;5120629;28;19957;-70
2022/10/24 01:59:42;;;;;;;;;;;14.80;99.90;;;;;;5125937;28;19928;-70
2022/10/24 02:02:12;;;;;;;;;;;14.70;99.90;;;;;;5108111;28;19926;-70
2022/10/24 02:04:42;;;;;;;;;;;14.60;99.90;;;;;;5123132;28;19920;-71
2022/10/24 02:07:10;;;;;;;;;;;14.50;99.90;;;;;;5106775;28;19934;-70
2022/10/24 02:09:37;;;;;;;;;;;14.50;99.90;;;;;;5125094;28;20115;-69
2022/10/24 02:12:06;;;;;;;;;;;14.50;99.90;;;;;;5125853;28;19920;-71
2022/10/24 02:14:34;;;;;;;;;;;14.40;99.90;;;;;;5102127;28;19928;-70
2022/10/24 02:17:02;;;;;;;;;;;14.40;99.90;;;;;;5105509;28;19928;-70
2022/10/24 02:19:28;;;;;;;;;;;14.40;99.90;;;;;;5124476;28;20275;-71
2022/10/24 02:22:01;;;;;;;;;;;14.30;99.90;;;;;;5107049;28;19920;-70
2022/10/24 02:24:29;;;;;;;;;;;14.40;99.90;;;;;;5087846;28;19920;-70
2022/10/24 02:26:57;;;;;;;;;;;14.30;99.90;;;;;;5105174;28;19928;-70
2022/10/24 02:29:26;;;;;;;;;;;14.30;99.90;;;;;;5105125;28;19920;-70
2022/10/24 02:31:54;;;;;;;;;;;14.40;99.90;;;;;;5109361;28;20111;-71
2022/10/24 02:34:21;;;;;;;;;;;14.30;99.90;;;;;;5111603;28;19920;-70
2022/10/24 02:36:49;;;;;;;;;;;14.30;99.90;;;;;;5104826;28;19920;-70
2022/10/24 02:39:18;;;;;;;;;;;14.30;99.90;;;;;;5109989;28;19936;-70
2022/10/24 02:41:45;;;;;;;;;;;14.30;99.90;;;;;;5125664;28;19942;-70
2022/10/24 02:44:13;;;;;;;;;;;14.30;99.90;;;;;;5121787;28;19929;-70
2022/10/24 02:46:40;;;;;;;;;;;14.30;99.90;;;;;;5105380;28;19955;-70
2022/10/24 02:49:07;;;;;;;;;;;14.40;99.90;;;;;;5104573;28;20183;-70
2022/10/24 02:51:35;;;;;;;;;;;14.30;99.90;;;;;;5111973;28;19926;-70
2022/10/24 02:54:02;;;;;;;;;;;14.40;99.90;;;;;;5117177;28;20111;-70
2022/10/24 02:56:31;;;;;;;;;;;14.30;99.90;;;;;;5093028;28;19991;-70
2022/10/24 02:58:57;;;;;;;;;;;14.30;99.90;;;;;;5104532;28;19935;-70
2022/10/24 03:01:24;;;;;;;;;;;14.20;99.90;;;;;;5114377;28;20249;-70
2022/10/24 03:03:50;;;;;;;;;;;14.30;99.90;;;;;;5124919;28;19926;-70
2022/10/24 03:06:17;;;;;;;;;;;14.20;99.90;;;;;;5109246;28;19920;-70
2022/10/24 03:08:44;;;;;;;;;;;14.30;99.90;;;;;;5115048;28;19991;-70
2022/10/24 03:11:10;;;;;;;;;;;14.30;99.90;;;;;;5104358;28;20222;-70
2022/10/24 03:13:38;;;;;;;;;;;14.30;99.90;;;;;;5104679;28;19927;-70
2022/10/24 03:16:05;;;;;;;;;;;14.20;99.90;;;;;;5108910;28;19919;-70
2022/10/24 03:18:32;;;;;;;;;;;14.20;99.90;;;;;;5114221;28;19926;-70
2022/10/24 03:20:58;;;;;;;;;;;14.20;99.90;;;;;;5123741;28;19988;-71
2022/10/24 03:23:27;;;;;;;;;;;14.10;99.90;;;;;;5112762;28;19983;-70
2022/10/24 03:25:54;;;;;;;;;;;14.20;99.90;;;;;;5103209;28;19920;-70
2022/10/24 03:28:21;;;;;;;;;;;14.10;99.90;;;;;;5104186;28;19991;-70
2022/10/24 03:30:49;;;;;;;;;;;14.10;99.90;;;;;;5104310;28;19926;-70
2022/10/24 03:33:15;;;;;;;;;;;14.10;99.90;;;;;;5109903;28;19926;-70
2022/10/24 03:35:42;;;;;;;;;;;14.10;99.90;;;;;;5105355;28;19920;-69
2022/10/24 03:38:08;;;;;;;;;;;14.10;99.90;;;;;;5117886;28;19919;-70
2022/10/24 03:40:35;;;;;;;;;;;14.20;99.90;;;;;;5124359;28;19987;-70
2022/10/24 03:43:02;;;;;;;;;;;14.10;99.90;;;;;;5108605;28;19926;-70
2022/10/24 03:45:28;;;;;;;;;;;14.10;99.90;;;;;;5107762;28;20279;-72
2022/10/24 03:47:56;;;;;;;;;;;14.20;99.90;;;;;;5104034;28;19991;-70
2022/10/24 03:50:23;;;;;;;;;;;14.20;99.90;;;;;;5122790;28;20207;-70
2022/10/24 03:52:50;;;;;;;;;;;14.10;99.90;;;;;;5123874;28;20191;-70
2022/10/24 03:55:16;;;;;;;;;;;14.10;99.90;;;;;;5115749;28;19920;-70
2022/10/24 03:57:43;;;;;;;;;;;14.10;99.90;;;;;;5103735;28;20226;-70
2022/10/24 04:00:10;;;;;;;;;;;14.10;99.90;;;;;;5103763;28;19979;-70
2022/10/24 04:02:37;;;;;;;;;;;14.00;99.90;;;;;;5118279;28;20204;-71
2022/10/24 04:05:05;;;;;;;;;;;14.00;99.90;;;;;;5102421;28;19962;-70
2022/10/24 04:07:32;;;;;;;;;;;14.00;99.90;;;;;;5122058;28;19986;-71
2022/10/24 04:09:59;;;;;;;;;;;14.00;99.90;;;;;;5123403;28;19955;-70
2022/10/24 04:12:25;;;;;;;;;;;14.00;99.90;;;;;;5123762;28;20160;-70
2022/10/24 04:14:52;;;;;;;;;;;14.00;99.90;;;;;;5117832;28;19988;-70
2022/10/24 04:17:18;;;;;;;;;;;14.00;99.90;;;;;;5103503;28;20138;-70
2022/10/24 04:19:45;;;;;;;;;;;14.00;99.90;;;;;;5109267;28;19995;-70
2022/10/24 04:22:13;;;;;;;;;;;14.00;99.90;;;;;;5107431;28;20230;-70
2022/10/24 04:24:39;;;;;;;;;;;14.00;99.90;;;;;;5100919;28;19926;-71
2022/10/24 04:27:07;;;;;;;;;;;14.10;99.90;;;;;;5106688;28;19983;-69
2022/10/24 04:29:33;;;;;;;;;;;14.00;99.90;;;;;;5116585;28;19920;-70
2022/10/24 04:32:00;;;;;;;;;;;14.10;99.90;;;;;;5109677;28;19919;-70
2022/10/24 04:34:27;;;;;;;;;;;14.20;99.90;;;;;;5105869;28;20226;-69
2022/10/24 04:36:53;;;;;;;;;;;14.20;99.90;;;;;;5092276;28;20204;-70
2022/10/24 04:39:21;;;;;;;;;;;14.20;99.90;;;;;;5104740;28;19983;-70
2022/10/24 04:41:48;;;;;;;;;;;14.20;99.90;;;;;;5121786;28;19983;-70
2022/10/24 04:44:14;;;;;;;;;;;14.20;99.90;;;;;;5095779;28;19927;-70
2022/10/24 04:46:41;;;;;;;;;;;14.20;99.90;;;;;;5120540;28;19930;-70
2022/10/24 04:49:08;;;;;;;;;;;14.20;99.90;;;;;;5108227;28;19934;-70
2022/10/24 04:51:35;;;;;;;;;;;14.20;99.90;;;;;;5116429;28;19927;-70
2022/10/24 04:54:02;;;;;;;;;;;14.20;99.90;;;;;;5109303;28;19987;-70
2022/10/24 04:56:29;;;;;;;;;;;14.20;99.90;;;;;;5109265;28;20216;-70
2022/10/24 04:58:56;;;;;;;;;;;14.30;99.90;;;;;;5107310;28;19928;-70
2022/10/24 05:01:23;;;;;;;;;;;14.30;99.90;;;;;;5119961;28;19979;-70
2022/10/24 05:03:49;;;;;;;;;;;14.30;99.90;;;;;;5112300;28;19983;-70
2022/10/24 05:06:16;;;;;;;;;;;14.30;99.90;;;;;;5117219;28;20115;-70
2022/10/24 05:08:42;;;;;;;;;;;14.40;99.90;;;;;;5102789;28;19983;-70
2022/10/24 05:11:10;;;;;;;;;;;14.40;99.90;;;;;;5102278;28;19983;-70
2022/10/24 05:13:38;;;;;;;;;;;14.40;99.90;;;;;;5101468;28;20157;-70
2022/10/24 05:16:05;;;;;;;;;;;14.40;99.90;;;;;;5102884;28;20093;-70
2022/10/24 05:18:31;;;;;;;;;;;14.40;99.90;;;;;;5098458;28;19927;-70
2022/10/24 05:20:58;;;;;;;;;;;14.40;99.90;;;;;;5103369;28;19984;-69
2022/10/24 05:23:25;;;;;;;;;;;14.40;99.90;;;;;;5102568;28;19920;-70
2022/10/24 05:25:52;;;;;;;;;;;14.40;99.90;;;;;;5102413;28;19920;-70
2022/10/24 05:28:18;;;;;;;;;;;14.40;99.90;;;;;;5103257;28;19920;-70
2022/10/24 05:30:46;;;;;;;;;;;14.40;99.90;;;;;;5103209;28;19955;-70
2022/10/24 05:33:13;;;;;;;;;;;14.50;99.90;;;;;;5103349;28;19924;-70
2022/10/24 05:35:40;;;;;;;;;;;14.40;99.90;;;;;;5102849;28;19920;-69
2022/10/24 05:38:07;;;;;;;;;;;14.50;99.90;;;;;;5102903;28;19928;-69
2022/10/24 05:40:34;;;;;;;;;;;14.50;99.90;;;;;;5107164;28;19928;-71
2022/10/24 05:43:00;;;;;;;;;;;14.50;99.90;;;;;;5106757;28;20283;-70
2022/10/24 05:45:27;;;;;;;;;;;14.50;99.90;;;;;;5106770;28;19988;-70
2022/10/24 05:47:55;;;;;;;;;;;14.50;99.90;;;;;;5106808;28;20212;-69
2022/10/24 05:50:21;;;;;;;;;;;14.50;99.90;;;;;;5107073;28;19926;-69
2022/10/24 05:52:48;;;;;;;;;;;14.50;99.90;;;;;;5106725;28;19927;-71
2022/10/24 05:55:14;;;;;;;;;;;14.60;99.90;;;;;;5106124;28;19974;-70
2022/10/24 05:57:41;;;;;;;;;;;14.60;99.90;;;;;;5106884;28;19995;-69
2022/10/24 06:00:11;;;;;;;;;;;14.70;99.90;;;;;;5106450;28;19920;-70
2022/10/24 06:02:37;;;;;;;;;;;14.70;99.90;;;;;;5089908;28;19921;-70
2022/10/24 06:05:06;;;;;;;;;;;14.80;99.90;;;;;;5098179;28;20216;-70
2022/10/24 06:07:34;;;;;;;;;;;14.90;99.90;;;;;;5093889;28;20238;-70
2022/10/24 06:10:01;;;;;;;;;;;14.90;99.90;;;;;;5095000;28;19983;-69
2022/10/24 06:12:28;;;;;;;;;;;15.00;99.90;;;;;;5094103;28;20152;-69
2022/10/24 06:14:55;;;;;;;;;;;15.00;99.90;;;;;;5085230;28;19920;-69
2022/10/24 06:17:22;;;;;;;;;;;15.00;99.90;;;;;;5090669;28;19920;-70
2022/10/24 06:19:49;;;;;;;;;;;15.10;99.90;;;;;;5092552;28;19920;-70
2022/10/24 06:22:18;;;;;;;;;;;15.10;99.90;;;;;;5100305;28;19934;-70
2022/10/24 06:24:45;;;;;;;;;;;15.20;99.90;;;;;;5097340;28;19927;-69
2022/10/24 06:27:11;;;;;;;;;;;15.20;99.90;;;;;;5105602;28;19920;-69
2022/10/24 06:29:38;;;;;;;;;;;15.20;99.90;;;;;;5105575;28;19987;-70
2022/10/24 06:32:04;;;;;;;;;;;15.20;99.90;;;;;;5105417;28;19920;-69
2022/10/24 06:34:31;;;;;;;;;;;15.20;99.90;;;;;;5085839;28;19920;-69
2022/10/24 06:36:58;;;;;;;;;;;15.20;99.90;;;;;;5085250;28;19995;-69
2022/10/24 06:39:26;;;;;;;;;;;15.30;99.90;;;;;;5085350;28;20007;-70
2022/10/24 06:41:52;;;;;;;;;;;15.30;99.90;;;;;;5085309;28;19920;-70
2022/10/24 06:44:19;;;;;;;;;;;15.30;99.90;;;;;;5084635;28;19979;-69
2022/10/24 06:46:46;;;;;;;;;;;15.30;99.90;;;;;;5084556;28;20115;-70
2022/10/24 06:49:13;;;;;;;;;;;15.30;99.90;;;;;;5084011;28;19927;-70
2022/10/24 06:51:40;;;;;;;;;;;15.30;99.90;;;;;;5084895;28;20154;-70
2022/10/24 06:54:07;;;;;;;;;;;15.30;99.90;;;;;;5084855;28;19920;-69
2022/10/24 06:56:35;;;;;;;;;;;15.40;99.90;;;;;;5085265;28;19920;-69
2022/10/24 06:59:08;;;;;;;;;;;15.40;99.90;;;;;;5084741;28;19991;-69
2022/10/24 07:01:35;;;;;;;;;;;15.30;99.90;;;;;;5084249;28;19991;-69
2022/10/24 07:04:02;;;;;;;;;;;15.30;99.90;;;;;;5098456;28;19929;-70
2022/10/24 07:06:29;;;;;;;;;;;15.30;99.90;;;;;;5095157;28;19940;-71
2022/10/24 07:08:57;;;;;;;;;;;15.30;99.90;;;;;;5084520;28;19927;-70
2022/10/24 07:11:23;;;;;;;;;;;15.20;99.90;;;;;;5084423;28;20200;-70
2022/10/24 07:13:51;;;;;;;;;;;15.10;99.90;;;;;;5088144;28;19987;-71
2022/10/24 07:16:18;;;;;;;;;;;15.00;99.90;;;;;;5104184;28;20153;-70
2022/10/24 07:18:45;;;;;;;;;;;15.00;99.90;;;;;;5101043;28;20093;-71
2022/10/24 07:21:14;;;;;;;;;;;14.90;99.90;;;;;;5084474;28;19926;-69
2022/10/24 07:23:40;;;;;;;;;;;14.80;99.90;;;;;;5084382;28;19921;-70
2022/10/24 07:26:08;;;;;;;;;;;14.70;99.90;;;;;;5084770;28;19986;-71
2022/10/24 07:28:35;;;;;;;;;;;14.70;99.90;;;;;;5084242;28;19921;-70
2022/10/24 07:31:03;;;;;;;;;;;14.60;99.90;;;;;;5092554;28;19926;-71
2022/10/24 07:33:39;;;;;;;;;;;14.50;99.90;;;;;;5104173;28;19982;-70
2022/10/24 07:36:06;;;;;;;;;;;14.50;99.90;;;;;;5098837;28;19983;-70
2022/10/24 07:38:32;;;;;;;;;;;14.50;99.90;;;;;;5095127;28;19983;-70
2022/10/24 07:41:02;;;;;;;;;;;14.50;99.90;;;;;;5104770;28;19995;-70
2022/10/24 07:43:30;;;;;;;;;;;14.50;99.90;;;;;;5104139;28;19920;-70
2022/10/24 07:45:57;;;;;;;;;;;14.40;99.90;;;;;;5096986;28;19987;-70
2022/10/24 07:48:25;;;;;;;;;;;14.40;99.90;;;;;;5103858;28;19955;-71
2022/10/24 07:50:52;;;;;;;;;;;14.30;99.90;;;;;;5093246;28;19981;-71
2022/10/24 07:53:19;;;;;;;;;;;14.30;99.90;;;;;;5094261;28;19920;-70
2022/10/24 07:55:45;;;;;;;;;;;14.30;99.90;;;;;;5097926;28;19920;-71
2022/10/24 07:58:13;;;;;;;;;;;14.30;99.90;;;;;;5104777;28;20155;-70
2022/10/24 08:00:40;;;;;;;;;;;14.20;99.90;;;;;;5084768;28;19920;-71
2022/10/24 08:03:06;;;;;;;;;;;14.30;99.90;;;;;;5083873;28;19996;-70
2022/10/24 08:05:34;;;;;;;;;;;14.30;99.90;;;;;;5083155;28;19987;-70
2022/10/24 08:08:01;;;;;;;;;;;14.30;99.90;;;;;;5093455;28;19987;-70
2022/10/24 08:10:27;;;;;;;;;;;14.30;99.90;;;;;;5104477;28;20169;-70
2022/10/24 08:12:54;;;;;;;;;;;14.30;99.90;;;;;;5104401;28;19926;-71
2022/10/24 08:15:24;;;;;;;;;;;14.30;99.90;;;;;;5103435;28;19920;-71
2022/10/24 08:18:14;;;;;;;;;;;14.30;99.90;;;;;;5103864;28;19920;-70
2022/10/24 08:20:42;;;;;;;;;;;14.20;99.90;;;;;;5090729;28;19921;-70
2022/10/24 08:23:09;;;;;;;;;;;14.20;99.90;;;;;;5084138;28;19927;-71
2022/10/24 08:25:39;;;;;;;;;;;14.20;99.90;;;;;;5093167;28;19930;-70
2022/10/24 08:28:05;;;;;;;;;;;14.20;99.90;;;;;;5104198;28;19920;-70
2022/10/24 08:30:32;;;;;;;;;;;14.30;99.90;;;;;;5104195;28;19986;-70
2022/10/24 08:32:58;;;;;;;;;;;14.30;99.90;;;;;;5104035;28;19988;-70
2022/10/24 08:35:25;;;;;;;;;;;14.40;99.90;;;;;;5103790;28;19988;-70
2022/10/24 08:37:53;;;;;;;;;;;14.40;99.90;;;;;;5104251;28;19983;-70
2022/10/24 08:40:20;;;;;;;;;;;14.40;99.90;;;;;;5084920;28;19927;-70
2022/10/24 08:42:47;;;;;;;;;;;14.40;99.90;;;;;;5084065;28;19963;-70
2022/10/24 08:45:19;;;;;;;;;;;14.40;99.90;;;;;;5083464;28;19925;-70
2022/10/24 08:47:49;;;;;;;;;;;14.50;99.90;;;;;;5083570;28;19980;-70
2022/10/24 08:50:19;;;;;;;;;;;14.50;99.90;;;;;;5083913;28;20115;-70
2022/10/24 08:52:48;;;;;;;;;;;14.50;99.90;;;;;;5083564;28;20227;-71
2022/10/24 08:55:17;;;;;;;;;;;14.50;99.90;;;;;;5083071;28;19972;-70
2022/10/24 08:57:45;;;;;;;;;;;14.50;99.90;;;;;;5083752;28;20111;-71
2022/10/24 09:00:23;;;;;;;;;;;14.50;99.90;;;;;;5101116;28;19942;-70
2022/10/24 09:02:53;;;;;;;;;;;14.50;99.90;;;;;;5103984;28;19955;-71
2022/10/24 09:05:22;;;;;;;;;;;14.50;99.90;;;;;;5103873;28;19920;-70
2022/10/24 09:07:51;;;;;;;;;;;14.50;99.90;;;;;;5103426;28;20222;-70
2022/10/24 09:10:22;;;;;;;;;;;14.60;99.90;;;;;;5104183;28;19983;-70
2022/10/24 09:12:49;;;;;;;;;;;14.60;99.90;;;;;;5105801;28;19987;-70
2022/10/24 09:15:17;;;;;;;;;;;14.60;99.90;;;;;;5107658;28;19987;-70
2022/10/24 09:17:43;;;;;;;;;;;14.60;99.90;;;;;;5093201;28;19920;-70
2022/10/24 09:20:18;;;;;;;;;;;14.60;99.90;;;;;;5087281;28;19921;-70
2022/10/24 09:22:44;;;;;;;;;;;14.70;99.90;;;;;;5087461;28;19926;-70
2022/10/24 09:25:13;;;;;;;;;;;14.70;99.90;;;;;;5087063;28;19992;-70
2022/10/24 09:27:42;;;;;;;;;;;14.80;99.90;;;;;;5087261;28;19927;-70
2022/10/24 09:30:15;;;;;;;;;;;14.80;99.90;;;;;;5087315;28;20150;-70
2022/10/24 09:32:42;;;;;;;;;;;14.80;99.90;;;;;;5087225;28;19920;-70
2022/10/24 09:35:09;;;;;;;;;;;14.80;99.90;;;;;;5086561;28;19920;-70
2022/10/24 09:37:38;;;;;;;;;;;14.80;99.90;;;;;;5087035;28;19921;-69
2022/10/24 09:40:08;;;;;;;;;;;14.80;99.90;;;;;;5086680;28;19920;-70
2022/10/24 09:42:36;;;;;;;;;;;14.80;99.90;;;;;;5087025;28;19920;-70
2022/10/24 09:45:18;;;;;;;;;;;14.80;99.90;;;;;;5086375;28;19920;-70
2022/10/24 09:47:45;;;;;;;;;;;14.80;99.90;;;;;;5086602;28;20230;-70
2022/10/24 09:50:18;;;;;;;;;;;14.80;99.90;;;;;;5086825;28;19920;-69
2022/10/24 09:52:48;;;;;;;;;;;14.80;99.90;;;;;;5087004;28;19920;-70
2022/10/24 09:55:16;;;;;;;;;;;14.80;99.90;;;;;;5086180;28;19920;-70
2022/10/24 09:57:43;;;;;;;;;;;14.80;99.90;;;;;;5086357;28;20056;-70
2022/10/24 10:00:20;;;;;;;;;;;14.80;99.90;;;;;;5103360;28;19920;-70
2022/10/24 10:02:57;;;;;;;;;;;14.80;99.90;;;;;;5106601;28;19920;-70
2022/10/24 10:05:23;;;;;;;;;;;14.90;99.90;;;;;;5106133;28;19964;-69
2022/10/24 10:07:51;;;;;;;;;;;14.90;99.90;;;;;;5105507;28;19934;-70
2022/10/24 10:10:36;;;;;;;;;;;14.90;99.90;;;;;;5085982;28;19999;-70
2022/10/24 10:13:05;;;;;;;;;;;14.90;99.90;;;;;;5086164;28;19943;-70
2022/10/24 10:15:34;;;;;;;;;;;14.90;99.90;;;;;;5085704;28;20119;-70
2022/10/24 10:18:02;;;;;;;;;;;14.90;99.90;;;;;;5085926;28;20093;-70
2022/10/24 10:20:31;;;;;;;;;;;15.00;99.90;;;;;;5085779;28;19991;-71
2022/10/24 10:23:15;;;;;;;;;;;15.00;99.90;;;;;;5085458;28;19920;-70
2022/10/24 10:25:43;;;;;;;;;;;15.10;99.90;;;;;;5084327;28;19943;-69
2022/10/24 10:28:18;;;;;;;;;;;15.10;99.90;;;;;;5084697;28;19983;-75
2022/10/24 10:30:49;;;;;;;;;;;15.10;99.90;;;;;;5084786;28;20013;-70
2022/10/24 10:33:18;;;;;;;;;;;15.10;99.90;;;;;;5085545;28;19980;-70
2022/10/24 10:35:50;;;;;;;;;;;15.20;99.90;;;;;;5084356;28;19983;-71
2022/10/24 10:38:23;;;;;;;;;;;15.20;99.90;;;;;;5085658;28;19963;-70
2022/10/24 10:40:52;;;;;;;;;;;15.20;99.90;;;;;;5086353;28;20165;-70
2022/10/24 10:43:27;;;;;;;;;;;15.20;99.90;;;;;;5085401;28;19920;-70
2022/10/24 10:46:04;;;;;;;;;;;15.10;99.90;;;;;;5084970;28;19935;-69
2022/10/24 10:48:37;;;;;;;;;;;15.10;99.90;;;;;;5084706;28;19966;-70
2022/10/24 10:51:08;;;;;;;;;;;15.10;99.90;;;;;;5084159;28;19947;-70
2022/10/24 10:53:37;;;;;;;;;;;15.10;99.90;;;;;;5084853;28;19927;-69
2022/10/24 10:56:08;;;;;;;;;;;15.10;99.90;;;;;;5084143;28;19927;-70
2022/10/24 10:58:39;;;;;;;;;;;15.10;99.90;;;;;;5085002;28;19920;-71
2022/10/24 11:01:14;;;;;;;;;;;15.20;99.90;;;;;;5085204;28;19943;-70
2022/10/24 11:03:44;;;;;;;;;;;15.10;99.90;;;;;;5090918;28;19920;-70
2022/10/24 11:06:17;;;;;;;;;;;15.20;99.90;;;;;;5098569;28;19927;-68
2022/10/24 11:08:58;;;;;;;;;;;15.20;99.90;;;;;;5084558;28;19920;-70
2022/10/24 11:11:28;;;;;;;;;;;15.30;99.90;;;;;;5075725;28;19983;-70
2022/10/24 11:13:58;;;;;;;;;;;15.30;99.90;;;;;;5084225;28;19920;-69
2022/10/24 11:16:27;;;;;;;;;;;15.40;99.90;;;;;;5084515;28;19926;-70
2022/10/24 11:18:55;;;;;;;;;;;15.40;99.90;;;;;;5084309;28;19991;-69
2022/10/24 11:21:23;;;;;;;;;;;15.40;99.90;;;;;;5084612;28;19995;-70
2022/10/24 11:23:52;;;;;;;;;;;15.40;99.90;;;;;;5097114;28;20107;-70
2022/10/24 11:26:20;;;;;;;;;;;15.40;99.90;;;;;;5104525;28;20096;-70
2022/10/24 11:28:52;;;;;;;;;;;15.40;99.90;;;;;;5104762;28;19919;-70
2022/10/24 11:31:22;;;;;;;;;;;15.40;99.90;;;;;;5104757;28;19920;-70
2022/10/24 11:33:57;;;;;;;;;;;15.50;99.90;;;;;;5104603;28;19958;-70
2022/10/24 11:36:27;;;;;;;;;;;15.50;99.90;;;;;;5104174;28;19991;-71
2022/10/24 11:38:55;;;;;;;;;;;15.60;99.90;;;;;;5104670;28;19920;-69
2022/10/24 11:41:26;;;;;;;;;;;15.60;99.90;;;;;;5087833;28;19920;-70
2022/10/24 11:43:55;;;;;;;;;;;15.60;99.90;;;;;;5084305;28;19920;-70
2022/10/24 11:46:25;;;;;;;;;;;15.60;99.90;;;;;;5083797;28;19991;-70
2022/10/24 11:48:55;;;;;;;;;;;15.60;99.90;;;;;;5084189;28;19920;-70
2022/10/24 11:51:24;;;;;;;;;;;15.60;99.90;;;;;;5083623;28;20315;-70
2022/10/24 11:53:53;;;;;;;;;;;15.60;99.90;;;;;;5083831;28;19926;-70
2022/10/24 11:56:24;;;;;;;;;;;15.60;99.90;;;;;;5083063;28;19943;-70
2022/10/24 11:58:54;;;;;;;;;;;15.60;99.90;;;;;;5083536;28;19920;-70
2022/10/24 12:01:32;;;;;;;;;;;15.60;99.90;;;;;;5083281;28;20200;-70
2022/10/24 12:04:11;;;;;;;;;;;15.60;99.90;;;;;;5082989;28;19928;-70
2022/10/24 12:06:43;;;;;;;;;;;15.60;99.90;;;;;;5082838;28;20101;-70
2022/10/24 12:09:19;;;;;;;;;;;15.60;99.90;;;;;;5083286;28;20258;-70
2022/10/24 12:11:53;;;;;;;;;;;15.60;99.90;;;;;;5083220;28;19920;-70
2022/10/24 12:14:33;;;;;;;;;;;15.60;99.90;;;;;;5082793;28;19943;-70
2022/10/24 12:17:15;;;;;;;;;;;15.60;99.90;;;;;;5083378;28;19926;-70
2022/10/24 12:19:44;;;;;;;;;;;15.60;99.90;;;;;;5080574;28;19966;-71
2022/10/24 12:22:15;;;;;;;;;;;15.60;99.90;;;;;;5083549;28;20007;-70
2022/10/24 12:24:41;;;;;;;;;;;15.70;99.90;;;;;;5082425;28;19920;-70
2022/10/24 12:27:19;;;;;;;;;;;15.80;99.90;;;;;;5083107;28;20002;-70
2022/10/24 12:29:46;;;;;;;;;;;15.80;99.90;;;;;;5083258;28;19920;-70
2022/10/24 12:32:30;;;;;;;;;;;15.80;99.90;;;;;;5083358;28;20117;-70
2022/10/24 12:34:58;;;;;;;;;;;15.80;99.90;;;;;;5083090;28;19943;-70
2022/10/24 12:37:35;;;;;;;;;;;15.80;99.90;;;;;;5083420;28;19927;-71
2022/10/24 12:40:17;;;;;;;;;;;15.80;99.90;;;;;;5083205;28;19920;-70
2022/10/24 12:43:03;;;;;;;;;;;15.80;99.90;;;;;;5082441;28;19959;-70
2022/10/24 12:45:30;;;;;;;;;;;15.90;99.90;;;;;;5082650;28;19927;-70
2022/10/24 12:48:13;;;;;;;;;;;15.90;99.90;;;;;;5087208;28;20275;-70
2022/10/24 12:51:00;;;;;;;;;;;15.90;99.90;;;;;;5089770;28;20208;-70
2022/10/24 12:53:38;;;;;;;;;;;15.90;99.90;;;;;;5089754;28;19924;-70
2022/10/24 12:56:18;;;;;;;;;;;16.00;99.90;;;;;;5089500;28;20204;-70
2022/10/24 12:58:46;;;;;;;;;;;16.00;99.90;;;;;;5089543;28;19942;-70
2022/10/24 13:01:23;;;;;;;;;;;16.00;99.90;;;;;;5089559;28;20204;-70
2022/10/24 13:03:57;;;;;;;;;;;16.00;99.90;;;;;;5089989;28;19924;-70
2022/10/24 13:06:26;;;;;;;;;;;16.00;99.90;;;;;;5089647;28;19920;-69
2022/10/24 13:09:05;;;;;;;;;;;16.00;99.90;;;;;;5089950;28;19988;-70
2022/10/24 13:11:37;;;;;;;;;;;16.10;99.90;;;;;;5089886;28;19920;-70
2022/10/24 13:14:21;;;;;;;;;;;16.10;99.90;;;;;;5089747;28;20107;-70
2022/10/24 13:16:53;;;;;;;;;;;16.10;99.90;;;;;;5089285;28;19921;-70
2022/10/24 13:19:20;;;;;;;;;;;16.10;99.90;;;;;;5089768;28;19920;-70
2022/10/24 13:21:48;;;;;;;;;;;16.00;99.90;;;;;;5089585;28;20164;-70
2022/10/24 13:24:35;;;;;;;;;;;16.10;99.90;;;;;;5089733;28;20003;-69
2022/10/24 13:27:23;;;;;;;;;;;16.10;99.90;;;;;;5082745;28;19958;-71
2022/10/24 13:30:05;;;;;;;;;;;16.10;99.90;;;;;;5089474;28;20203;-71
2022/10/24 13:32:33;;;;;;;;;;;16.10;99.90;;;;;;5089557;28;19926;-70
2022/10/24 13:35:01;;;;;;;;;;;16.20;99.90;;;;;;5089358;28;19921;-70
2022/10/24 13:37:29;;;;;;;;;;;16.20;99.90;;;;;;5089275;28;19927;-70
2022/10/24 13:39:57;;;;;;;;;;;16.20;99.90;;;;;;5089560;28;20090;-69
2022/10/24 13:42:31;;;;;;;;;;;16.30;99.90;;;;;;5089134;28;19920;-70
2022/10/24 13:44:59;;;;;;;;;;;16.20;99.90;;;;;;5088840;28;19927;-70
2022/10/24 13:47:29;;;;;;;;;;;16.30;99.90;;;;;;5089102;28;20234;-69
2022/10/24 13:49:57;;;;;;;;;;;16.30;99.90;;;;;;5089144;28;19921;-69
2022/10/24 13:52:26;;;;;;;;;;;16.40;99.90;;;;;;5088628;28;20242;-69
2022/10/24 13:54:56;;;;;;;;;;;16.50;99.90;;;;;;5088139;28;20220;-69
2022/10/24 13:57:23;;;;;;;;;;;16.40;99.90;;;;;;5089184;28;20256;-71
2022/10/24 13:59:55;;;;;;;;;;;16.40;99.90;;;;;;5084888;28;19920;-69
2022/10/24 14:02:22;;;;;;;;;;;16.40;99.90;;;;;;5084769;28;19920;-70
2022/10/24 14:04:49;;;;;;;;;;;16.40;99.90;;;;;;5100266;28;20204;-71
2022/10/24 14:07:19;;;;;;;;;;;16.40;99.90;;;;;;5113420;28;19921;-71
2022/10/24 14:09:49;;;;;;;;;;;16.40;99.90;;;;;;5097487;28;19987;-70
2022/10/24 14:12:19;;;;;;;;;;;16.40;99.90;;;;;;5116002;28;19991;-72
2022/10/24 14:14:55;;;;;;;;;;;16.40;99.90;;;;;;5117859;28;20208;-72
2022/10/24 14:17:24;;;;;;;;;;;16.40;99.90;;;;;;5126340;28;19920;-72
2022/10/24 14:19:52;;;;;;;;;;;16.40;99.90;;;;;;5119732;28;19920;-71
2022/10/24 14:22:20;;;;;;;;;;;16.40;99.90;;;;;;5099904;28;19979;-71
2022/10/24 14:24:47;;;;;;;;;;;16.50;99.90;;;;;;5084056;28;20093;-71
2022/10/24 14:27:14;;;;;;;;;;;16.40;99.90;;;;;;5084648;28;20143;-72